sensor_id;sensor_type;location;lat;lon;timestamp;temperature;humidity
13848;DHT22;6994;49.752;6.094;2023-08-06T00:01:02;15.00;99.90
13848;DHT22;6994;49.752;6.094;2023-08-06T00:03:29;15.00;99.90
13848;DHT22;6994;49.752;6.094;2023-08-06T00:05:56;14.90;99.90
13848;DHT22;6994;49.752;6.094;2023-08-06T00:08:24;14.90;99.90
13848;DHT22;6994;49.752;6.094;2023-08-06T00:10:51;14.90;99.90
13848;DHT22;6994;49.752;6.094;2023-08-06T00:13:18;14.80;99.90
13848;DHT22;6994;49.752;6.094;2023-08-06T00:15:45;14.80;99.90
13848;DHT22;6994;49.752;6.094;2023-08-06T00:18:12;14.80;99.90
13848;DHT22;6994;49.752;6.094;2023-08-06T00:20:40;14.80;99.90
13848;DHT22;6994;49.752;6.094;2023-08-06T00:23:07;14.80;99.90
13848;DHT22;6994;49.752;6.094;2023-08-06T00:25:34;14.80;99.90
13848;DHT22;6994;49.752;6.094;2023-08-06T00:28:01;14.80;99.90
13848;DHT22;6994;49.752;6.094;2023-08-06T00:30:28;14.80;99.90
13848;DHT22;6994;49.752;6.094;2023-08-06T00:32:56;14.80;99.90
13848;DHT22;6994;49.752;6.094;2023-08-06T00:35:24;14.80;99.90
13848;DHT22;6994;49.752;6.094;2023-08-06T00:37:51;14.80;99.90
13848;DHT22;6994;49.752;6.094;2023-08-06T00:40:19;14.80;99.90
13848;DHT22;6994;49.752;6.094;2023-08-06T00:42:45;14.80;99.90
13848;DHT22;6994;49.752;6.094;2023-08-06T00:45:13;14.90;99.90
13848;DHT22;6994;49.752;6.094;2023-08-06T00:47:40;15.00;99.90
13848;DHT22;6994;49.752;6.094;2023-08-06T00:50:07;15.20;99.90
13848;DHT22;6994;49.752;6.094;2023-08-06T00:52:34;15.20;99.90
13848;DHT22;6994;49.752;6.094;2023-08-06T00:55:02;15.10;99.90
13848;DHT22;6994;49.752;6.094;2023-08-06T00:57:29;15.20;99.90
13848;DHT22;6994;49.752;6.094;2023-08-06T00:59:56;15.20;99.90
13848;DHT22;6994;49.752;6.094;2023-08-06T01:02:23;15.10;99.90
13848;DHT22;6994;49.752;6.094;2023-08-06T01:04:50;15.10;99.90
13848;DHT22;6994;49.752;6.094;2023-08-06T01:08:19;15.00;99.90
13848;DHT22;6994;49.752;6.094;2023-08-06T01:10:14;14.80;99.90
13848;DHT22;6994;49.752;6.094;2023-08-06T01:15:20;14.80;99.90
13848;DHT22;6994;49.752;6.094;2023-08-06T01:17:47;14.70;99.90
13848;DHT22;6994;49.752;6.094;2023-08-06T01:20:15;14.60;99.90
13848;DHT22;6994;49.752;6.094;2023-08-06T01:22:43;14.60;99.90
13848;DHT22;6994;49.752;6.094;2023-08-06T01:25:11;14.60;99.90
13848;DHT22;6994;49.752;6.094;2023-08-06T01:27:44;14.60;99.90
13848;DHT22;6994;49.752;6.094;2023-08-06T01:32:36;14.60;99.90
13848;DHT22;6994;49.752;6.094;2023-08-06T01:35:05;14.50;99.90
13848;DHT22;6994;49.752;6.094;2023-08-06T01:37:31;14.50;99.90
13848;DHT22;6994;49.752;6.094;2023-08-06T01:39:59;14.50;99.90
13848;DHT22;6994;49.752;6.094;2023-08-06T01:42:27;14.50;99.90
13848;DHT22;6994;49.752;6.094;2023-08-06T01:44:55;14.50;99.90
13848;DHT22;6994;49.752;6.094;2023-08-06T01:47:22;14.50;99.90
13848;DHT22;6994;49.752;6.094;2023-08-06T01:49:49;14.50;99.90
13848;DHT22;6994;49.752;6.094;2023-08-06T01:52:17;14.50;99.90
13848;DHT22;6994;49.752;6.094;2023-08-06T01:54:44;14.60;99.90
13848;DHT22;6994;49.752;6.094;2023-08-06T01:57:11;14.70;99.90
13848;DHT22;6994;49.752;6.094;2023-08-06T01:59:38;14.70;99.90
13848;DHT22;6994;49.752;6.094;2023-08-06T02:02:06;14.60;99.90
13848;DHT22;6994;49.752;6.094;2023-08-06T02:04:33;14.60;99.90
13848;DHT22;6994;49.752;6.094;2023-08-06T02:07:00;14.60;99.90
13848;DHT22;6994;49.752;6.094;2023-08-06T02:09:27;14.50;99.90
13848;DHT22;6994;49.752;6.094;2023-08-06T02:11:54;14.50;99.90
13848;DHT22;6994;49.752;6.094;2023-08-06T02:14:22;14.50;99.90
13848;DHT22;6994;49.752;6.094;2023-08-06T02:16:49;14.70;99.90
13848;DHT22;6994;49.752;6.094;2023-08-06T02:19:16;14.70;99.90
13848;DHT22;6994;49.752;6.094;2023-08-06T02:21:43;14.70;99.90
13848;DHT22;6994;49.752;6.094;2023-08-06T02:24:11;14.60;99.90
13848;DHT22;6994;49.752;6.094;2023-08-06T02:26:39;14.60;99.90
13848;DHT22;6994;49.752;6.094;2023-08-06T02:29:06;14.50;99.90
13848;DHT22;6994;49.752;6.094;2023-08-06T02:31:34;14.50;99.90
13848;DHT22;6994;49.752;6.094;2023-08-06T02:34:01;14.50;99.90
13848;DHT22;6994;49.752;6.094;2023-08-06T02:36:28;14.50;99.90
13848;DHT22;6994;49.752;6.094;2023-08-06T02:38:55;14.50;99.90
13848;DHT22;6994;49.752;6.094;2023-08-06T02:41:23;14.60;99.90
13848;DHT22;6994;49.752;6.094;2023-08-06T02:43:50;14.70;99.90
13848;DHT22;6994;49.752;6.094;2023-08-06T02:46:18;14.60;99.90
13848;DHT22;6994;49.752;6.094;2023-08-06T02:48:45;14.60;99.90
13848;DHT22;6994;49.752;6.094;2023-08-06T02:51:12;14.60;99.90
13848;DHT22;6994;49.752;6.094;2023-08-06T02:53:40;14.50;99.90
13848;DHT22;6994;49.752;6.094;2023-08-06T02:56:07;14.50;99.90
13848;DHT22;6994;49.752;6.094;2023-08-06T02:58:34;14.60;99.90
13848;DHT22;6994;49.752;6.094;2023-08-06T03:01:05;14.50;99.90
13848;DHT22;6994;49.752;6.094;2023-08-06T03:03:33;14.80;99.90
13848;DHT22;6994;49.752;6.094;2023-08-06T03:06:00;14.70;99.90
13848;DHT22;6994;49.752;6.094;2023-08-06T03:08:28;14.70;99.90
13848;DHT22;6994;49.752;6.094;2023-08-06T03:10:56;14.70;99.90
13848;DHT22;6994;49.752;6.094;2023-08-06T03:13:23;14.70;99.90
13848;DHT22;6994;49.752;6.094;2023-08-06T03:15:56;14.70;99.90
13848;DHT22;6994;49.752;6.094;2023-08-06T03:18:23;14.60;99.90
13848;DHT22;6994;49.752;6.094;2023-08-06T03:20:50;14.60;99.90
13848;DHT22;6994;49.752;6.094;2023-08-06T03:23:17;14.50;99.90
13848;DHT22;6994;49.752;6.094;2023-08-06T03:25:45;14.50;99.90
13848;DHT22;6994;49.752;6.094;2023-08-06T03:28:13;14.50;99.90
13848;DHT22;6994;49.752;6.094;2023-08-06T03:30:41;14.50;99.90
13848;DHT22;6994;49.752;6.094;2023-08-06T03:33:09;14.50;99.90
13848;DHT22;6994;49.752;6.094;2023-08-06T03:35:36;14.50;99.90
13848;DHT22;6994;49.752;6.094;2023-08-06T03:38:04;14.70;99.90
13848;DHT22;6994;49.752;6.094;2023-08-06T03:40:31;14.70;99.90
13848;DHT22;6994;49.752;6.094;2023-08-06T03:42:58;14.90;99.90
13848;DHT22;6994;49.752;6.094;2023-08-06T03:45:25;14.90;99.90
13848;DHT22;6994;49.752;6.094;2023-08-06T03:47:52;14.90;99.90
13848;DHT22;6994;49.752;6.094;2023-08-06T03:50:20;14.80;99.90
13848;DHT22;6994;49.752;6.094;2023-08-06T03:52:48;14.70;99.90
13848;DHT22;6994;49.752;6.094;2023-08-06T03:55:15;14.70;99.90
13848;DHT22;6994;49.752;6.094;2023-08-06T03:57:42;14.70;99.90
13848;DHT22;6994;49.752;6.094;2023-08-06T04:00:09;14.60;99.90
13848;DHT22;6994;49.752;6.094;2023-08-06T04:02:36;14.60;99.90
13848;DHT22;6994;49.752;6.094;2023-08-06T04:05:04;14.60;99.90
13848;DHT22;6994;49.752;6.094;2023-08-06T04:07:31;14.80;99.90
13848;DHT22;6994;49.752;6.094;2023-08-06T04:09:58;14.80;99.90
13848;DHT22;6994;49.752;6.094;2023-08-06T04:12:25;14.80;99.90
13848;DHT22;6994;49.752;6.094;2023-08-06T04:14:53;14.80;99.90
13848;DHT22;6994;49.752;6.094;2023-08-06T04:17:20;14.70;99.90
13848;DHT22;6994;49.752;6.094;2023-08-06T04:19:51;14.70;99.90
13848;DHT22;6994;49.752;6.094;2023-08-06T04:22:15;14.60;99.90
13848;DHT22;6994;49.752;6.094;2023-08-06T04:24:43;14.60;99.90
13848;DHT22;6994;49.752;6.094;2023-08-06T04:27:11;14.50;99.90
13848;DHT22;6994;49.752;6.094;2023-08-06T04:29:38;14.50;99.90
13848;DHT22;6994;49.752;6.094;2023-08-06T04:32:06;14.50;99.90
13848;DHT22;6994;49.752;6.094;2023-08-06T04:34:32;14.50;99.90
13848;DHT22;6994;49.752;6.094;2023-08-06T04:37:00;14.50;99.90
13848;DHT22;6994;49.752;6.094;2023-08-06T04:39:27;14.40;99.90
13848;DHT22;6994;49.752;6.094;2023-08-06T04:41:55;14.40;99.90
13848;DHT22;6994;49.752;6.094;2023-08-06T04:44:21;14.30;99.90
13848;DHT22;6994;49.752;6.094;2023-08-06T04:46:48;14.30;99.90
13848;DHT22;6994;49.752;6.094;2023-08-06T04:49:16;14.30;99.90
13848;DHT22;6994;49.752;6.094;2023-08-06T04:51:43;14.30;99.90
13848;DHT22;6994;49.752;6.094;2023-08-06T04:54:10;14.30;99.90
13848;DHT22;6994;49.752;6.094;2023-08-06T04:56:37;14.30;99.90
13848;DHT22;6994;49.752;6.094;2023-08-06T04:59:05;14.30;99.90
13848;DHT22;6994;49.752;6.094;2023-08-06T05:01:33;14.30;99.90
13848;DHT22;6994;49.752;6.094;2023-08-06T05:04:01;14.30;99.90
13848;DHT22;6994;49.752;6.094;2023-08-06T05:06:28;14.30;99.90
13848;DHT22;6994;49.752;6.094;2023-08-06T05:08:56;14.30;99.90
13848;DHT22;6994;49.752;6.094;2023-08-06T05:11:23;14.30;99.90
13848;DHT22;6994;49.752;6.094;2023-08-06T05:13:50;14.50;99.90
13848;DHT22;6994;49.752;6.094;2023-08-06T05:16:17;14.60;99.90
13848;DHT22;6994;49.752;6.094;2023-08-06T05:18:44;14.50;99.90
13848;DHT22;6994;49.752;6.094;2023-08-06T05:21:12;14.60;99.90
13848;DHT22;6994;49.752;6.094;2023-08-06T05:23:39;14.50;99.90
13848;DHT22;6994;49.752;6.094;2023-08-06T05:26:06;14.50;99.90
13848;DHT22;6994;49.752;6.094;2023-08-06T05:28:34;14.60;99.90
13848;DHT22;6994;49.752;6.094;2023-08-06T05:31:04;14.60;99.90
13848;DHT22;6994;49.752;6.094;2023-08-06T05:33:32;14.70;99.90
13848;DHT22;6994;49.752;6.094;2023-08-06T05:36:00;14.70;99.90
13848;DHT22;6994;49.752;6.094;2023-08-06T05:38:27;14.70;99.90
13848;DHT22;6994;49.752;6.094;2023-08-06T05:40:54;14.70;99.90
13848;DHT22;6994;49.752;6.094;2023-08-06T05:43:22;14.70;99.90
13848;DHT22;6994;49.752;6.094;2023-08-06T05:45:49;14.70;99.90
13848;DHT22;6994;49.752;6.094;2023-08-06T05:48:16;14.70;99.90
13848;DHT22;6994;49.752;6.094;2023-08-06T05:50:43;14.90;99.90
13848;DHT22;6994;49.752;6.094;2023-08-06T05:53:10;15.00;99.90
13848;DHT22;6994;49.752;6.094;2023-08-06T05:55:38;15.00;99.90
13848;DHT22;6994;49.752;6.094;2023-08-06T05:58:05;14.90;99.90
13848;DHT22;6994;49.752;6.094;2023-08-06T06:00:33;14.90;99.90
13848;DHT22;6994;49.752;6.094;2023-08-06T06:03:01;14.80;99.90
13848;DHT22;6994;49.752;6.094;2023-08-06T06:05:29;14.80;99.90
13848;DHT22;6994;49.752;6.094;2023-08-06T06:07:57;14.80;99.90
13848;DHT22;6994;49.752;6.094;2023-08-06T06:10:25;14.80;99.90
13848;DHT22;6994;49.752;6.094;2023-08-06T06:12:53;14.80;99.90
13848;DHT22;6994;49.752;6.094;2023-08-06T06:15:20;14.80;99.90
13848;DHT22;6994;49.752;6.094;2023-08-06T06:17:47;14.80;99.90
13848;DHT22;6994;49.752;6.094;2023-08-06T06:20:14;14.90;99.90
13848;DHT22;6994;49.752;6.094;2023-08-06T06:22:42;15.20;99.90
13848;DHT22;6994;49.752;6.094;2023-08-06T06:25:09;15.30;99.90
13848;DHT22;6994;49.752;6.094;2023-08-06T06:27:36;15.40;99.90
13848;DHT22;6994;49.752;6.094;2023-08-06T06:30:03;15.40;99.90
13848;DHT22;6994;49.752;6.094;2023-08-06T06:32:30;15.40;99.90
13848;DHT22;6994;49.752;6.094;2023-08-06T06:34:58;15.30;99.90
13848;DHT22;6994;49.752;6.094;2023-08-06T06:37:26;15.20;99.90
13848;DHT22;6994;49.752;6.094;2023-08-06T06:39:54;15.20;99.90
13848;DHT22;6994;49.752;6.094;2023-08-06T06:42:21;15.10;99.90
13848;DHT22;6994;49.752;6.094;2023-08-06T06:44:48;15.00;99.90
13848;DHT22;6994;49.752;6.094;2023-08-06T06:47:15;14.90;99.90
13848;DHT22;6994;49.752;6.094;2023-08-06T06:49:42;14.80;99.90
13848;DHT22;6994;49.752;6.094;2023-08-06T06:52:10;14.80;99.90
13848;DHT22;6994;49.752;6.094;2023-08-06T06:54:37;14.70;99.90
13848;DHT22;6994;49.752;6.094;2023-08-06T06:57:04;14.70;99.90
13848;DHT22;6994;49.752;6.094;2023-08-06T06:59:31;14.60;99.90
13848;DHT22;6994;49.752;6.094;2023-08-06T07:01:59;14.60;99.90
13848;DHT22;6994;49.752;6.094;2023-08-06T07:04:26;14.70;99.90
13848;DHT22;6994;49.752;6.094;2023-08-06T07:06:53;14.70;99.90
13848;DHT22;6994;49.752;6.094;2023-08-06T07:09:20;14.70;99.90
13848;DHT22;6994;49.752;6.094;2023-08-06T07:11:47;14.60;99.90
13848;DHT22;6994;49.752;6.094;2023-08-06T07:14:15;14.50;99.90
13848;DHT22;6994;49.752;6.094;2023-08-06T07:16:43;14.50;99.90
13848;DHT22;6994;49.752;6.094;2023-08-06T07:19:10;14.50;99.90
13848;DHT22;6994;49.752;6.094;2023-08-06T07:21:38;14.40;99.90
13848;DHT22;6994;49.752;6.094;2023-08-06T07:24:06;14.40;99.90
13848;DHT22;6994;49.752;6.094;2023-08-06T07:26:33;14.40;99.90
13848;DHT22;6994;49.752;6.094;2023-08-06T07:29:00;14.40;99.90
13848;DHT22;6994;49.752;6.094;2023-08-06T07:31:27;14.40;99.90
13848;DHT22;6994;49.752;6.094;2023-08-06T07:33:55;14.30;99.90
13848;DHT22;6994;49.752;6.094;2023-08-06T07:36:22;14.30;99.90
13848;DHT22;6994;49.752;6.094;2023-08-06T07:38:49;14.30;99.90
13848;DHT22;6994;49.752;6.094;2023-08-06T07:41:16;14.20;99.90
13848;DHT22;6994;49.752;6.094;2023-08-06T07:43:43;14.20;99.90
13848;DHT22;6994;49.752;6.094;2023-08-06T07:46:11;14.10;99.90
13848;DHT22;6994;49.752;6.094;2023-08-06T07:48:38;14.20;99.90
13848;DHT22;6994;49.752;6.094;2023-08-06T07:51:05;14.20;99.90
13848;DHT22;6994;49.752;6.094;2023-08-06T07:53:33;14.50;99.90
13848;DHT22;6994;49.752;6.094;2023-08-06T07:56:00;14.50;99.90
13848;DHT22;6994;49.752;6.094;2023-08-06T07:58:27;14.50;99.90
13848;DHT22;6994;49.752;6.094;2023-08-06T08:00:55;14.50;99.90
13848;DHT22;6994;49.752;6.094;2023-08-06T08:03:22;14.50;99.90
13848;DHT22;6994;49.752;6.094;2023-08-06T08:05:49;14.50;99.90
13848;DHT22;6994;49.752;6.094;2023-08-06T08:08:16;14.70;99.90
13848;DHT22;6994;49.752;6.094;2023-08-06T08:10:43;14.80;99.90
13848;DHT22;6994;49.752;6.094;2023-08-06T08:13:11;14.80;99.90
13848;DHT22;6994;49.752;6.094;2023-08-06T08:15:38;14.80;99.90
13848;DHT22;6994;49.752;6.094;2023-08-06T08:18:06;14.70;99.90
13848;DHT22;6994;49.752;6.094;2023-08-06T08:20:33;14.70;99.90
13848;DHT22;6994;49.752;6.094;2023-08-06T08:23:00;14.60;99.90
13848;DHT22;6994;49.752;6.094;2023-08-06T08:25:27;14.60;99.90
13848;DHT22;6994;49.752;6.094;2023-08-06T08:27:55;14.60;99.90
13848;DHT22;6994;49.752;6.094;2023-08-06T08:30:22;14.50;99.90
13848;DHT22;6994;49.752;6.094;2023-08-06T08:32:49;14.50;99.90
13848;DHT22;6994;49.752;6.094;2023-08-06T08:35:16;14.60;99.90
13848;DHT22;6994;49.752;6.094;2023-08-06T08:37:43;14.90;99.90
13848;DHT22;6994;49.752;6.094;2023-08-06T08:40:11;15.00;99.90
13848;DHT22;6994;49.752;6.094;2023-08-06T08:42:38;15.10;99.90
13848;DHT22;6994;49.752;6.094;2023-08-06T08:45:06;15.10;99.90
13848;DHT22;6994;49.752;6.094;2023-08-06T08:47:32;15.10;99.90
13848;DHT22;6994;49.752;6.094;2023-08-06T08:50:00;15.20;99.90
13848;DHT22;6994;49.752;6.094;2023-08-06T08:52:27;15.20;99.90
13848;DHT22;6994;49.752;6.094;2023-08-06T08:54:54;15.60;99.90
13848;DHT22;6994;49.752;6.094;2023-08-06T08:57:21;15.80;99.90
13848;DHT22;6994;49.752;6.094;2023-08-06T08:59:48;15.80;99.90
13848;DHT22;6994;49.752;6.094;2023-08-06T09:02:16;15.90;99.90
13848;DHT22;6994;49.752;6.094;2023-08-06T09:04:43;16.00;99.90
13848;DHT22;6994;49.752;6.094;2023-08-06T09:07:11;16.00;99.90
13848;DHT22;6994;49.752;6.094;2023-08-06T09:09:38;16.10;99.90
13848;DHT22;6994;49.752;6.094;2023-08-06T09:12:10;16.10;99.90
13848;DHT22;6994;49.752;6.094;2023-08-06T09:14:32;16.10;99.90
13848;DHT22;6994;49.752;6.094;2023-08-06T09:17:00;16.30;99.90
13848;DHT22;6994;49.752;6.094;2023-08-06T09:19:27;16.50;99.90
13848;DHT22;6994;49.752;6.094;2023-08-06T09:21:55;16.70;99.90
13848;DHT22;6994;49.752;6.094;2023-08-06T09:24:21;17.20;99.90
13848;DHT22;6994;49.752;6.094;2023-08-06T09:26:48;17.30;99.90
13848;DHT22;6994;49.752;6.094;2023-08-06T09:29:16;17.30;99.90
13848;DHT22;6994;49.752;6.094;2023-08-06T09:31:46;17.30;99.90
13848;DHT22;6994;49.752;6.094;2023-08-06T09:34:16;17.20;99.90
13848;DHT22;6994;49.752;6.094;2023-08-06T09:36:43;17.10;99.90
13848;DHT22;6994;49.752;6.094;2023-08-06T09:39:13;17.00;99.90
13848;DHT22;6994;49.752;6.094;2023-08-06T09:41:39;16.90;99.90
13848;DHT22;6994;49.752;6.094;2023-08-06T09:44:26;17.00;99.90
13848;DHT22;6994;49.752;6.094;2023-08-06T09:46:36;16.80;99.90
13848;DHT22;6994;49.752;6.094;2023-08-06T09:49:03;16.60;99.90
13848;DHT22;6994;49.752;6.094;2023-08-06T09:51:31;16.50;99.90
13848;DHT22;6994;49.752;6.094;2023-08-06T09:53:58;16.30;99.90
13848;DHT22;6994;49.752;6.094;2023-08-06T09:56:25;16.20;99.90
13848;DHT22;6994;49.752;6.094;2023-08-06T09:58:52;16.00;99.90
13848;DHT22;6994;49.752;6.094;2023-08-06T10:01:20;15.90;99.90
13848;DHT22;6994;49.752;6.094;2023-08-06T10:03:47;15.80;99.90
13848;DHT22;6994;49.752;6.094;2023-08-06T10:06:14;15.70;99.90
13848;DHT22;6994;49.752;6.094;2023-08-06T10:08:42;15.60;99.90
13848;DHT22;6994;49.752;6.094;2023-08-06T10:11:10;15.60;99.90
13848;DHT22;6994;49.752;6.094;2023-08-06T10:13:38;15.70;99.90
13848;DHT22;6994;49.752;6.094;2023-08-06T10:16:05;15.70;99.90
13848;DHT22;6994;49.752;6.094;2023-08-06T10:18:32;15.80;99.90
13848;DHT22;6994;49.752;6.094;2023-08-06T10:20:59;15.90;99.90
13848;DHT22;6994;49.752;6.094;2023-08-06T10:23:36;15.90;99.90
13848;DHT22;6994;49.752;6.094;2023-08-06T10:26:03;15.70;99.90
13848;DHT22;6994;49.752;6.094;2023-08-06T10:28:37;15.70;99.90
13848;DHT22;6994;49.752;6.094;2023-08-06T10:31:03;15.50;99.90
13848;DHT22;6994;49.752;6.094;2023-08-06T10:33:41;15.20;99.90
13848;DHT22;6994;49.752;6.094;2023-08-06T10:36:08;15.20;99.90
13848;DHT22;6994;49.752;6.094;2023-08-06T10:38:35;15.20;99.90
13848;DHT22;6994;49.752;6.094;2023-08-06T10:41:02;15.30;99.90
13848;DHT22;6994;49.752;6.094;2023-08-06T10:43:29;15.50;99.90
13848;DHT22;6994;49.752;6.094;2023-08-06T10:45:57;15.70;99.90
13848;DHT22;6994;49.752;6.094;2023-08-06T10:48:30;15.80;99.90
13848;DHT22;6994;49.752;6.094;2023-08-06T10:50:57;15.80;99.90
13848;DHT22;6994;49.752;6.094;2023-08-06T10:53:24;15.80;99.90
13848;DHT22;6994;49.752;6.094;2023-08-06T10:55:51;15.90;99.90
13848;DHT22;6994;49.752;6.094;2023-08-06T10:58:18;16.30;99.90
13848;DHT22;6994;49.752;6.094;2023-08-06T11:00:45;16.60;99.90
13848;DHT22;6994;49.752;6.094;2023-08-06T11:03:13;17.10;99.90
13848;DHT22;6994;49.752;6.094;2023-08-06T11:05:40;17.60;99.90
13848;DHT22;6994;49.752;6.094;2023-08-06T11:08:07;17.80;99.90
13848;DHT22;6994;49.752;6.094;2023-08-06T11:10:34;17.80;99.90
13848;DHT22;6994;49.752;6.094;2023-08-06T11:13:02;17.80;99.90
13848;DHT22;6994;49.752;6.094;2023-08-06T11:15:29;17.70;99.90
13848;DHT22;6994;49.752;6.094;2023-08-06T11:17:57;17.50;99.90
13848;DHT22;6994;49.752;6.094;2023-08-06T11:20:25;17.40;99.90
13848;DHT22;6994;49.752;6.094;2023-08-06T11:22:52;17.40;99.90
13848;DHT22;6994;49.752;6.094;2023-08-06T11:25:20;17.40;99.90
13848;DHT22;6994;49.752;6.094;2023-08-06T11:27:46;17.30;99.90
13848;DHT22;6994;49.752;6.094;2023-08-06T11:30:14;17.50;99.90
13848;DHT22;6994;49.752;6.094;2023-08-06T11:32:47;17.80;99.90
13848;DHT22;6994;49.752;6.094;2023-08-06T11:35:14;18.20;99.90
13848;DHT22;6994;49.752;6.094;2023-08-06T11:37:44;18.90;99.90
13848;DHT22;6994;49.752;6.094;2023-08-06T11:40:13;20.20;99.90
13848;DHT22;6994;49.752;6.094;2023-08-06T11:42:40;20.60;99.90
13848;DHT22;6994;49.752;6.094;2023-08-06T11:45:08;20.70;99.90
13848;DHT22;6994;49.752;6.094;2023-08-06T11:47:38;20.90;99.90
13848;DHT22;6994;49.752;6.094;2023-08-06T11:50:03;20.90;99.90
13848;DHT22;6994;49.752;6.094;2023-08-06T11:52:30;20.70;99.90
13848;DHT22;6994;49.752;6.094;2023-08-06T11:55:07;20.70;99.90
13848;DHT22;6994;49.752;6.094;2023-08-06T11:57:37;20.90;99.90
13848;DHT22;6994;49.752;6.094;2023-08-06T12:00:08;20.90;99.90
13848;DHT22;6994;49.752;6.094;2023-08-06T12:02:34;21.20;99.90
13848;DHT22;6994;49.752;6.094;2023-08-06T12:07:32;20.90;99.90
13848;DHT22;6994;49.752;6.094;2023-08-06T12:09:59;20.90;99.90
13848;DHT22;6994;49.752;6.094;2023-08-06T12:12:26;21.10;99.90
13848;DHT22;6994;49.752;6.094;2023-08-06T12:14:53;20.90;99.90
13848;DHT22;6994;49.752;6.094;2023-08-06T12:17:20;20.70;99.90
13848;DHT22;6994;49.752;6.094;2023-08-06T12:19:47;20.70;99.90
13848;DHT22;6994;49.752;6.094;2023-08-06T12:22:15;20.70;99.90
13848;DHT22;6994;49.752;6.094;2023-08-06T12:24:42;21.00;99.90
13848;DHT22;6994;49.752;6.094;2023-08-06T12:27:09;21.30;99.90
13848;DHT22;6994;49.752;6.094;2023-08-06T12:29:44;21.20;99.90
13848;DHT22;6994;49.752;6.094;2023-08-06T12:32:11;21.20;99.90
13848;DHT22;6994;49.752;6.094;2023-08-06T12:34:39;19.90;99.90
13848;DHT22;6994;49.752;6.094;2023-08-06T12:37:06;19.00;99.90
13848;DHT22;6994;49.752;6.094;2023-08-06T12:39:36;18.90;99.90
13848;DHT22;6994;49.752;6.094;2023-08-06T12:42:04;18.20;99.90
13848;DHT22;6994;49.752;6.094;2023-08-06T12:44:31;17.60;99.90
13848;DHT22;6994;49.752;6.094;2023-08-06T12:46:58;17.20;99.90
13848;DHT22;6994;49.752;6.094;2023-08-06T12:49:26;16.60;99.90
13848;DHT22;6994;49.752;6.094;2023-08-06T12:51:54;16.50;99.90
13848;DHT22;6994;49.752;6.094;2023-08-06T12:54:22;16.50;99.90
13848;DHT22;6994;49.752;6.094;2023-08-06T12:56:50;16.60;99.90
13848;DHT22;6994;49.752;6.094;2023-08-06T12:59:18;16.80;99.90
13848;DHT22;6994;49.752;6.094;2023-08-06T13:01:45;16.80;99.90
13848;DHT22;6994;49.752;6.094;2023-08-06T13:04:12;16.90;99.90
13848;DHT22;6994;49.752;6.094;2023-08-06T13:06:39;17.00;99.90
13848;DHT22;6994;49.752;6.094;2023-08-06T13:09:07;17.20;99.90
13848;DHT22;6994;49.752;6.094;2023-08-06T13:11:36;16.80;99.90
13848;DHT22;6994;49.752;6.094;2023-08-06T13:14:05;16.80;99.90
13848;DHT22;6994;49.752;6.094;2023-08-06T13:16:31;16.50;99.90
13848;DHT22;6994;49.752;6.094;2023-08-06T13:18:59;16.10;99.90
13848;DHT22;6994;49.752;6.094;2023-08-06T13:21:30;16.00;99.90
13848;DHT22;6994;49.752;6.094;2023-08-06T13:23:55;16.20;99.90
13848;DHT22;6994;49.752;6.094;2023-08-06T13:26:23;16.40;99.90
13848;DHT22;6994;49.752;6.094;2023-08-06T13:28:51;16.80;99.90
13848;DHT22;6994;49.752;6.094;2023-08-06T13:31:18;16.80;99.90
13848;DHT22;6994;49.752;6.094;2023-08-06T13:33:45;17.40;99.90
13848;DHT22;6994;49.752;6.094;2023-08-06T13:36:12;18.10;99.90
13848;DHT22;6994;49.752;6.094;2023-08-06T13:38:39;18.70;99.90
13848;DHT22;6994;49.752;6.094;2023-08-06T13:41:07;19.00;99.90
13848;DHT22;6994;49.752;6.094;2023-08-06T13:43:34;19.50;99.90
13848;DHT22;6994;49.752;6.094;2023-08-06T13:46:01;19.80;99.90
13848;DHT22;6994;49.752;6.094;2023-08-06T13:48:28;19.90;99.90
13848;DHT22;6994;49.752;6.094;2023-08-06T13:50:55;20.10;99.90
13848;DHT22;6994;49.752;6.094;2023-08-06T13:53:23;20.10;99.90
13848;DHT22;6994;49.752;6.094;2023-08-06T13:55:50;19.80;99.90
13848;DHT22;6994;49.752;6.094;2023-08-06T13:58:18;19.50;99.90
13848;DHT22;6994;49.752;6.094;2023-08-06T14:00:46;19.40;99.90
13848;DHT22;6994;49.752;6.094;2023-08-06T14:03:14;19.80;99.90
13848;DHT22;6994;49.752;6.094;2023-08-06T14:05:42;20.40;99.90
13848;DHT22;6994;49.752;6.094;2023-08-06T14:08:10;21.70;99.90
13848;DHT22;6994;49.752;6.094;2023-08-06T14:10:38;22.40;99.90
13848;DHT22;6994;49.752;6.094;2023-08-06T14:13:05;22.40;99.90
13848;DHT22;6994;49.752;6.094;2023-08-06T14:15:32;22.60;99.90
13848;DHT22;6994;49.752;6.094;2023-08-06T14:17:59;22.70;99.90
13848;DHT22;6994;49.752;6.094;2023-08-06T14:20:26;22.70;99.90
13848;DHT22;6994;49.752;6.094;2023-08-06T14:22:54;22.60;99.90
13848;DHT22;6994;49.752;6.094;2023-08-06T14:25:21;22.60;99.90
13848;DHT22;6994;49.752;6.094;2023-08-06T14:27:48;22.00;99.90
13848;DHT22;6994;49.752;6.094;2023-08-06T14:30:15;21.50;99.90
13848;DHT22;6994;49.752;6.094;2023-08-06T14:32:42;21.10;99.90
13848;DHT22;6994;49.752;6.094;2023-08-06T14:35:10;20.40;99.90
13848;DHT22;6994;49.752;6.094;2023-08-06T14:37:38;20.30;99.90
13848;DHT22;6994;49.752;6.094;2023-08-06T14:40:05;19.80;99.90
13848;DHT22;6994;49.752;6.094;2023-08-06T14:42:32;19.30;99.90
13848;DHT22;6994;49.752;6.094;2023-08-06T14:44:59;19.00;99.90
13848;DHT22;6994;49.752;6.094;2023-08-06T14:47:27;18.90;99.90
13848;DHT22;6994;49.752;6.094;2023-08-06T14:49:54;18.80;99.90
13848;DHT22;6994;49.752;6.094;2023-08-06T14:52:21;19.10;99.90
13848;DHT22;6994;49.752;6.094;2023-08-06T14:54:48;19.00;99.90
13848;DHT22;6994;49.752;6.094;2023-08-06T14:57:15;18.80;99.90
13848;DHT22;6994;49.752;6.094;2023-08-06T14:59:43;18.50;99.90
13848;DHT22;6994;49.752;6.094;2023-08-06T15:02:11;17.40;99.90
13848;DHT22;6994;49.752;6.094;2023-08-06T15:04:39;16.80;99.90
13848;DHT22;6994;49.752;6.094;2023-08-06T15:07:06;16.80;99.90
13848;DHT22;6994;49.752;6.094;2023-08-06T15:09:33;16.30;99.90
13848;DHT22;6994;49.752;6.094;2023-08-06T15:12:00;15.90;99.90
13848;DHT22;6994;49.752;6.094;2023-08-06T15:14:27;15.60;99.90
13848;DHT22;6994;49.752;6.094;2023-08-06T15:16:55;15.50;99.90
13848;DHT22;6994;49.752;6.094;2023-08-06T15:19:22;15.50;99.90
13848;DHT22;6994;49.752;6.094;2023-08-06T15:21:49;15.60;99.90
13848;DHT22;6994;49.752;6.094;2023-08-06T15:24:16;15.70;99.90
13848;DHT22;6994;49.752;6.094;2023-08-06T15:26:43;15.90;99.90
13848;DHT22;6994;49.752;6.094;2023-08-06T15:29:11;15.90;99.90
13848;DHT22;6994;49.752;6.094;2023-08-06T15:31:38;16.00;99.90
13848;DHT22;6994;49.752;6.094;2023-08-06T15:34:06;16.10;99.90
13848;DHT22;6994;49.752;6.094;2023-08-06T15:36:34;16.10;99.90
13848;DHT22;6994;49.752;6.094;2023-08-06T15:39:02;16.10;99.90
13848;DHT22;6994;49.752;6.094;2023-08-06T15:41:30;16.10;99.90
13848;DHT22;6994;49.752;6.094;2023-08-06T15:43:58;16.10;99.90
13848;DHT22;6994;49.752;6.094;2023-08-06T15:46:26;16.20;99.90
13848;DHT22;6994;49.752;6.094;2023-08-06T15:48:54;16.40;99.90
13848;DHT22;6994;49.752;6.094;2023-08-06T15:51:21;16.40;99.90
13848;DHT22;6994;49.752;6.094;2023-08-06T15:53:48;16.50;99.90